Terminal Aerodrome Forecast
Issued by NWS Miami, FL

Home | Current Version | Previous Version | Text Only | Print | Product List | Glossary On
Versions: 1 2 3 4 5 6 7 8 9 10 11 12 13 14 15 16 17 18 19 20 21 22 23 24 25 26 27 28 29 30
000
FTUS42 KMFL 291839 AAA
TAFAPF
TAF AMD
KAPF 291839Z 2919/3018 16010G23KT P6SM -TSRA SCT035CB SCT050 BKN080
      TEMPO 2919/2920 VRB10G25KT 4SM TSRA BKN030CB BKN050
     FM292000 13010G24KT P6SM VCTS SCT025CB BKN050
     FM300000 13008G15KT P6SM VCSH SCT030 BKN100 BKN250=

USA.gov is the U.S. government's official web portal to all federal, state and local government web resources and services.